sensor_id;sensor_type;location;lat;lon;timestamp;P1;durP1;ratioP1;P2;durP2;ratioP2
4222;SDS011;2125;51.436;14.138;2022-08-06T00:00:19;2.97;;;2.67;;
4222;SDS011;2125;51.436;14.138;2022-08-06T00:02:46;4.00;;;2.50;;
4222;SDS011;2125;51.436;14.138;2022-08-06T00:05:12;5.60;;;3.07;;
4222;SDS011;2125;51.436;14.138;2022-08-06T00:07:39;8.53;;;2.93;;
4222;SDS011;2125;51.436;14.138;2022-08-06T00:10:06;5.67;;;3.20;;
4222;SDS011;2125;51.436;14.138;2022-08-06T00:12:34;7.13;;;3.50;;
4222;SDS011;2125;51.436;14.138;2022-08-06T00:15:01;4.20;;;3.20;;
4222;SDS011;2125;51.436;14.138;2022-08-06T00:17:29;6.63;;;3.30;;
4222;SDS011;2125;51.436;14.138;2022-08-06T00:19:56;4.83;;;3.40;;
4222;SDS011;2125;51.436;14.138;2022-08-06T00:22:22;4.10;;;3.40;;
4222;SDS011;2125;51.436;14.138;2022-08-06T00:24:49;5.23;;;3.10;;
4222;SDS011;2125;51.436;14.138;2022-08-06T00:27:15;7.07;;;3.40;;
4222;SDS011;2125;51.436;14.138;2022-08-06T00:29:43;4.00;;;3.43;;
4222;SDS011;2125;51.436;14.138;2022-08-06T00:32:10;5.20;;;3.47;;
4222;SDS011;2125;51.436;14.138;2022-08-06T00:34:36;4.37;;;3.27;;
4222;SDS011;2125;51.436;14.138;2022-08-06T00:37:03;4.47;;;3.87;;
4222;SDS011;2125;51.436;14.138;2022-08-06T00:39:30;4.53;;;3.83;;
4222;SDS011;2125;51.436;14.138;2022-08-06T00:41:56;5.40;;;3.53;;
4222;SDS011;2125;51.436;14.138;2022-08-06T00:44:23;5.07;;;3.60;;
4222;SDS011;2125;51.436;14.138;2022-08-06T00:46:51;5.47;;;4.20;;
4222;SDS011;2125;51.436;14.138;2022-08-06T00:49:18;4.67;;;3.87;;
4222;SDS011;2125;51.436;14.138;2022-08-06T00:51:45;8.10;;;4.20;;
4222;SDS011;2125;51.436;14.138;2022-08-06T00:54:11;5.67;;;3.90;;
4222;SDS011;2125;51.436;14.138;2022-08-06T00:56:38;7.20;;;4.50;;
4222;SDS011;2125;51.436;14.138;2022-08-06T00:59:05;4.70;;;4.10;;
4222;SDS011;2125;51.436;14.138;2022-08-06T01:01:31;6.53;;;4.10;;
4222;SDS011;2125;51.436;14.138;2022-08-06T01:04:00;4.40;;;3.70;;
4222;SDS011;2125;51.436;14.138;2022-08-06T01:06:27;7.83;;;4.50;;
4222;SDS011;2125;51.436;14.138;2022-08-06T01:08:53;5.80;;;4.40;;
4222;SDS011;2125;51.436;14.138;2022-08-06T01:11:20;6.10;;;4.60;;
4222;SDS011;2125;51.436;14.138;2022-08-06T01:13:47;6.17;;;4.67;;
4222;SDS011;2125;51.436;14.138;2022-08-06T01:16:15;7.60;;;4.17;;
4222;SDS011;2125;51.436;14.138;2022-08-06T01:18:48;5.57;;;4.10;;
4222;SDS011;2125;51.436;14.138;2022-08-06T01:21:32;6.07;;;4.60;;
4222;SDS011;2125;51.436;14.138;2022-08-06T01:24:31;6.47;;;4.67;;
4222;SDS011;2125;51.436;14.138;2022-08-06T01:27:28;7.33;;;4.93;;
4222;SDS011;2125;51.436;14.138;2022-08-06T01:30:09;5.63;;;4.37;;
4222;SDS011;2125;51.436;14.138;2022-08-06T01:32:40;5.17;;;4.60;;
4222;SDS011;2125;51.436;14.138;2022-08-06T01:35:12;5.40;;;4.50;;
4222;SDS011;2125;51.436;14.138;2022-08-06T01:37:44;7.80;;;4.30;;
4222;SDS011;2125;51.436;14.138;2022-08-06T01:40:16;10.53;;;5.03;;
4222;SDS011;2125;51.436;14.138;2022-08-06T01:42:48;6.40;;;5.10;;
4222;SDS011;2125;51.436;14.138;2022-08-06T01:45:17;5.20;;;4.50;;
4222;SDS011;2125;51.436;14.138;2022-08-06T01:47:47;5.60;;;4.97;;
4222;SDS011;2125;51.436;14.138;2022-08-06T01:50:17;6.07;;;4.60;;
4222;SDS011;2125;51.436;14.138;2022-08-06T01:52:46;7.30;;;4.77;;
4222;SDS011;2125;51.436;14.138;2022-08-06T01:55:16;5.33;;;4.50;;
4222;SDS011;2125;51.436;14.138;2022-08-06T01:57:48;6.10;;;4.00;;
4222;SDS011;2125;51.436;14.138;2022-08-06T02:00:18;5.30;;;3.80;;
4222;SDS011;2125;51.436;14.138;2022-08-06T02:02:45;6.37;;;4.10;;
4222;SDS011;2125;51.436;14.138;2022-08-06T02:05:15;5.83;;;3.43;;
4222;SDS011;2125;51.436;14.138;2022-08-06T02:07:45;6.17;;;2.00;;
4222;SDS011;2125;51.436;14.138;2022-08-06T02:10:16;4.20;;;2.47;;
4222;SDS011;2125;51.436;14.138;2022-08-06T02:12:44;4.70;;;2.50;;
4222;SDS011;2125;51.436;14.138;2022-08-06T02:15:16;3.80;;;2.87;;
4222;SDS011;2125;51.436;14.138;2022-08-06T02:17:46;3.63;;;2.93;;
4222;SDS011;2125;51.436;14.138;2022-08-06T02:20:17;2.87;;;2.50;;
4222;SDS011;2125;51.436;14.138;2022-08-06T02:22:46;4.93;;;2.97;;
4222;SDS011;2125;51.436;14.138;2022-08-06T02:25:15;4.00;;;2.90;;
4222;SDS011;2125;51.436;14.138;2022-08-06T02:27:48;3.50;;;3.00;;
4222;SDS011;2125;51.436;14.138;2022-08-06T02:30:16;4.13;;;3.00;;
4222;SDS011;2125;51.436;14.138;2022-08-06T02:32:43;3.20;;;2.90;;
4222;SDS011;2125;51.436;14.138;2022-08-06T02:35:11;6.00;;;3.20;;
4222;SDS011;2125;51.436;14.138;2022-08-06T02:37:38;3.57;;;1.60;;
4222;SDS011;2125;51.436;14.138;2022-08-06T02:40:10;8.37;;;1.80;;
4222;SDS011;2125;51.436;14.138;2022-08-06T02:42:43;2.30;;;1.60;;
4222;SDS011;2125;51.436;14.138;2022-08-06T02:45:17;4.70;;;1.70;;
4222;SDS011;2125;51.436;14.138;2022-08-06T02:47:48;3.97;;;2.20;;
4222;SDS011;2125;51.436;14.138;2022-08-06T02:50:22;2.03;;;1.83;;
4222;SDS011;2125;51.436;14.138;2022-08-06T02:53:00;1.67;;;1.30;;
4222;SDS011;2125;51.436;14.138;2022-08-06T02:55:29;1.60;;;1.50;;
4222;SDS011;2125;51.436;14.138;2022-08-06T02:57:59;1.07;;;0.97;;
4222;SDS011;2125;51.436;14.138;2022-08-06T03:00:32;2.67;;;1.60;;
4222;SDS011;2125;51.436;14.138;2022-08-06T03:03:02;2.70;;;1.80;;
4222;SDS011;2125;51.436;14.138;2022-08-06T03:05:32;1.80;;;1.43;;
4222;SDS011;2125;51.436;14.138;2022-08-06T03:08:00;1.17;;;1.00;;
4222;SDS011;2125;51.436;14.138;2022-08-06T03:10:28;1.80;;;1.03;;
4222;SDS011;2125;51.436;14.138;2022-08-06T03:12:57;2.80;;;1.10;;
4222;SDS011;2125;51.436;14.138;2022-08-06T03:15:25;3.90;;;1.47;;
4222;SDS011;2125;51.436;14.138;2022-08-06T03:17:55;1.53;;;0.90;;
4222;SDS011;2125;51.436;14.138;2022-08-06T03:20:25;1.10;;;1.00;;
4222;SDS011;2125;51.436;14.138;2022-08-06T03:22:55;1.63;;;1.40;;
4222;SDS011;2125;51.436;14.138;2022-08-06T03:25:25;1.30;;;1.20;;
4222;SDS011;2125;51.436;14.138;2022-08-06T03:27:53;1.90;;;1.20;;
4222;SDS011;2125;51.436;14.138;2022-08-06T03:30:20;1.30;;;1.10;;
4222;SDS011;2125;51.436;14.138;2022-08-06T03:32:47;1.10;;;1.00;;
4222;SDS011;2125;51.436;14.138;2022-08-06T03:35:16;1.20;;;1.00;;
4222;SDS011;2125;51.436;14.138;2022-08-06T03:37:44;1.50;;;1.13;;
4222;SDS011;2125;51.436;14.138;2022-08-06T03:40:13;0.73;;;0.73;;
4222;SDS011;2125;51.436;14.138;2022-08-06T03:42:40;0.73;;;0.73;;
4222;SDS011;2125;51.436;14.138;2022-08-06T03:45:08;3.37;;;1.03;;
4222;SDS011;2125;51.436;14.138;2022-08-06T03:47:37;2.50;;;1.00;;
4222;SDS011;2125;51.436;14.138;2022-08-06T03:50:09;2.80;;;1.10;;
4222;SDS011;2125;51.436;14.138;2022-08-06T03:52:39;1.60;;;0.97;;
4222;SDS011;2125;51.436;14.138;2022-08-06T03:55:12;1.20;;;1.07;;
4222;SDS011;2125;51.436;14.138;2022-08-06T03:57:43;1.40;;;1.00;;
4222;SDS011;2125;51.436;14.138;2022-08-06T04:00:13;0.80;;;0.60;;
4222;SDS011;2125;51.436;14.138;2022-08-06T04:02:42;0.90;;;0.80;;
4222;SDS011;2125;51.436;14.138;2022-08-06T04:05:11;1.00;;;0.73;;
4222;SDS011;2125;51.436;14.138;2022-08-06T04:07:40;1.03;;;0.90;;
4222;SDS011;2125;51.436;14.138;2022-08-06T04:10:07;2.70;;;0.90;;
4222;SDS011;2125;51.436;14.138;2022-08-06T04:12:35;2.30;;;0.90;;
4222;SDS011;2125;51.436;14.138;2022-08-06T04:15:03;1.03;;;0.90;;
4222;SDS011;2125;51.436;14.138;2022-08-06T04:17:31;2.20;;;0.90;;
4222;SDS011;2125;51.436;14.138;2022-08-06T04:19:59;4.00;;;1.10;;
4222;SDS011;2125;51.436;14.138;2022-08-06T04:22:26;2.60;;;0.70;;
4222;SDS011;2125;51.436;14.138;2022-08-06T04:24:54;1.00;;;0.90;;
4222;SDS011;2125;51.436;14.138;2022-08-06T04:27:21;1.07;;;1.00;;
4222;SDS011;2125;51.436;14.138;2022-08-06T04:29:49;3.23;;;0.80;;
4222;SDS011;2125;51.436;14.138;2022-08-06T04:32:18;1.37;;;0.97;;
4222;SDS011;2125;51.436;14.138;2022-08-06T04:34:48;0.80;;;0.73;;
4222;SDS011;2125;51.436;14.138;2022-08-06T04:37:16;1.53;;;1.00;;
4222;SDS011;2125;51.436;14.138;2022-08-06T04:39:43;3.27;;;1.03;;
4222;SDS011;2125;51.436;14.138;2022-08-06T04:42:12;3.07;;;0.73;;
4222;SDS011;2125;51.436;14.138;2022-08-06T04:44:39;1.37;;;0.90;;
4222;SDS011;2125;51.436;14.138;2022-08-06T04:47:06;2.10;;;1.10;;
4222;SDS011;2125;51.436;14.138;2022-08-06T04:49:33;1.40;;;0.90;;
4222;SDS011;2125;51.436;14.138;2022-08-06T04:51:59;2.00;;;0.90;;
4222;SDS011;2125;51.436;14.138;2022-08-06T04:54:26;1.00;;;0.90;;
4222;SDS011;2125;51.436;14.138;2022-08-06T04:56:53;2.70;;;1.10;;
4222;SDS011;2125;51.436;14.138;2022-08-06T04:59:20;0.90;;;0.90;;
4222;SDS011;2125;51.436;14.138;2022-08-06T05:01:47;1.23;;;1.03;;
4222;SDS011;2125;51.436;14.138;2022-08-06T05:04:14;1.20;;;1.10;;
4222;SDS011;2125;51.436;14.138;2022-08-06T05:06:43;1.00;;;0.90;;
4222;SDS011;2125;51.436;14.138;2022-08-06T05:09:13;3.70;;;1.10;;
4222;SDS011;2125;51.436;14.138;2022-08-06T05:11:47;1.83;;;0.80;;
4222;SDS011;2125;51.436;14.138;2022-08-06T05:14:24;3.77;;;1.00;;
4222;SDS011;2125;51.436;14.138;2022-08-06T05:16:54;1.17;;;0.90;;
4222;SDS011;2125;51.436;14.138;2022-08-06T05:19:25;1.80;;;1.10;;
4222;SDS011;2125;51.436;14.138;2022-08-06T05:22:07;2.30;;;1.10;;
4222;SDS011;2125;51.436;14.138;2022-08-06T05:24:36;1.87;;;0.90;;
4222;SDS011;2125;51.436;14.138;2022-08-06T05:27:03;1.20;;;1.10;;
4222;SDS011;2125;51.436;14.138;2022-08-06T05:29:32;1.20;;;1.03;;
4222;SDS011;2125;51.436;14.138;2022-08-06T05:31:59;2.13;;;1.20;;
4222;SDS011;2125;51.436;14.138;2022-08-06T05:34:27;1.60;;;1.30;;
4222;SDS011;2125;51.436;14.138;2022-08-06T05:36:54;0.70;;;0.57;;
4222;SDS011;2125;51.436;14.138;2022-08-06T05:39:20;2.53;;;0.90;;
4222;SDS011;2125;51.436;14.138;2022-08-06T05:41:47;0.80;;;0.80;;
4222;SDS011;2125;51.436;14.138;2022-08-06T05:44:14;4.60;;;0.80;;
4222;SDS011;2125;51.436;14.138;2022-08-06T05:46:44;1.67;;;0.80;;
4222;SDS011;2125;51.436;14.138;2022-08-06T05:49:18;1.27;;;0.83;;
4222;SDS011;2125;51.436;14.138;2022-08-06T05:51:50;1.03;;;0.83;;
4222;SDS011;2125;51.436;14.138;2022-08-06T05:54:21;1.10;;;0.90;;
4222;SDS011;2125;51.436;14.138;2022-08-06T05:56:55;1.97;;;0.80;;
4222;SDS011;2125;51.436;14.138;2022-08-06T05:59:28;1.10;;;0.80;;
4222;SDS011;2125;51.436;14.138;2022-08-06T06:01:59;0.80;;;0.80;;
4222;SDS011;2125;51.436;14.138;2022-08-06T06:04:26;2.00;;;0.80;;
4222;SDS011;2125;51.436;14.138;2022-08-06T06:06:53;2.83;;;0.80;;
4222;SDS011;2125;51.436;14.138;2022-08-06T06:09:20;2.67;;;0.87;;
4222;SDS011;2125;51.436;14.138;2022-08-06T06:11:47;1.57;;;0.80;;
4222;SDS011;2125;51.436;14.138;2022-08-06T06:14:25;1.37;;;0.80;;
4222;SDS011;2125;51.436;14.138;2022-08-06T06:17:04;0.60;;;0.60;;
4222;SDS011;2125;51.436;14.138;2022-08-06T06:19:46;1.73;;;0.80;;
4222;SDS011;2125;51.436;14.138;2022-08-06T06:22:21;2.20;;;0.90;;
4222;SDS011;2125;51.436;14.138;2022-08-06T06:24:52;4.10;;;0.73;;
4222;SDS011;2125;51.436;14.138;2022-08-06T06:27:24;1.30;;;0.60;;
4222;SDS011;2125;51.436;14.138;2022-08-06T06:30:00;1.73;;;0.60;;
4222;SDS011;2125;51.436;14.138;2022-08-06T06:32:35;1.73;;;0.60;;
4222;SDS011;2125;51.436;14.138;2022-08-06T06:35:09;1.10;;;0.80;;
4222;SDS011;2125;51.436;14.138;2022-08-06T06:37:43;1.47;;;0.70;;
4222;SDS011;2125;51.436;14.138;2022-08-06T06:40:22;3.47;;;0.83;;
4222;SDS011;2125;51.436;14.138;2022-08-06T06:43:01;1.37;;;0.77;;
4222;SDS011;2125;51.436;14.138;2022-08-06T06:45:34;1.57;;;0.70;;
4222;SDS011;2125;51.436;14.138;2022-08-06T06:48:11;3.80;;;0.97;;
4222;SDS011;2125;51.436;14.138;2022-08-06T06:50:43;0.87;;;0.83;;
4222;SDS011;2125;51.436;14.138;2022-08-06T06:53:12;1.00;;;0.83;;
4222;SDS011;2125;51.436;14.138;2022-08-06T06:55:42;0.80;;;0.80;;
4222;SDS011;2125;51.436;14.138;2022-08-06T06:58:11;2.20;;;0.80;;
4222;SDS011;2125;51.436;14.138;2022-08-06T07:00:42;1.10;;;0.70;;
4222;SDS011;2125;51.436;14.138;2022-08-06T07:03:11;1.77;;;1.20;;
4222;SDS011;2125;51.436;14.138;2022-08-06T07:05:40;5.10;;;1.10;;
4222;SDS011;2125;51.436;14.138;2022-08-06T07:08:09;1.30;;;0.90;;
4222;SDS011;2125;51.436;14.138;2022-08-06T07:10:38;3.43;;;0.80;;
4222;SDS011;2125;51.436;14.138;2022-08-06T07:13:07;0.87;;;0.87;;
4222;SDS011;2125;51.436;14.138;2022-08-06T07:15:35;1.53;;;0.80;;
4222;SDS011;2125;51.436;14.138;2022-08-06T07:18:03;4.00;;;0.90;;
4222;SDS011;2125;51.436;14.138;2022-08-06T07:20:32;1.77;;;0.97;;
4222;SDS011;2125;51.436;14.138;2022-08-06T07:23:00;1.03;;;0.80;;
4222;SDS011;2125;51.436;14.138;2022-08-06T07:25:29;1.27;;;0.80;;
4222;SDS011;2125;51.436;14.138;2022-08-06T07:27:57;1.83;;;1.00;;
4222;SDS011;2125;51.436;14.138;2022-08-06T07:30:25;1.90;;;0.90;;
4222;SDS011;2125;51.436;14.138;2022-08-06T07:32:51;1.67;;;1.17;;
4222;SDS011;2125;51.436;14.138;2022-08-06T07:35:19;2.33;;;0.90;;
4222;SDS011;2125;51.436;14.138;2022-08-06T07:37:49;2.30;;;1.00;;
4222;SDS011;2125;51.436;14.138;2022-08-06T07:40:20;1.00;;;0.90;;
4222;SDS011;2125;51.436;14.138;2022-08-06T07:42:51;0.70;;;0.70;;
4222;SDS011;2125;51.436;14.138;2022-08-06T07:45:21;3.20;;;1.10;;
4222;SDS011;2125;51.436;14.138;2022-08-06T07:47:50;2.50;;;1.10;;
4222;SDS011;2125;51.436;14.138;2022-08-06T07:50:19;2.60;;;0.80;;
4222;SDS011;2125;51.436;14.138;2022-08-06T07:52:49;2.60;;;0.90;;
4222;SDS011;2125;51.436;14.138;2022-08-06T07:55:17;0.93;;;0.70;;
4222;SDS011;2125;51.436;14.138;2022-08-06T07:57:46;2.10;;;0.90;;
4222;SDS011;2125;51.436;14.138;2022-08-06T08:00:13;1.90;;;0.90;;
4222;SDS011;2125;51.436;14.138;2022-08-06T08:02:40;1.63;;;0.80;;
4222;SDS011;2125;51.436;14.138;2022-08-06T08:05:27;2.70;;;1.00;;
4222;SDS011;2125;51.436;14.138;2022-08-06T08:08:13;3.53;;;1.00;;
4222;SDS011;2125;51.436;14.138;2022-08-06T08:10:39;1.30;;;0.70;;
4222;SDS011;2125;51.436;14.138;2022-08-06T08:13:07;0.97;;;0.87;;
4222;SDS011;2125;51.436;14.138;2022-08-06T08:15:35;1.93;;;1.27;;
4222;SDS011;2125;51.436;14.138;2022-08-06T08:18:02;1.57;;;0.80;;
4222;SDS011;2125;51.436;14.138;2022-08-06T08:20:30;0.83;;;0.83;;
4222;SDS011;2125;51.436;14.138;2022-08-06T08:22:59;1.63;;;1.00;;
4222;SDS011;2125;51.436;14.138;2022-08-06T08:25:27;1.73;;;1.20;;
4222;SDS011;2125;51.436;14.138;2022-08-06T08:27:53;1.00;;;0.90;;
4222;SDS011;2125;51.436;14.138;2022-08-06T08:30:20;0.83;;;0.70;;
4222;SDS011;2125;51.436;14.138;2022-08-06T08:32:47;1.83;;;1.20;;
4222;SDS011;2125;51.436;14.138;2022-08-06T08:35:16;6.47;;;1.20;;
4222;SDS011;2125;51.436;14.138;2022-08-06T08:37:52;2.17;;;0.93;;
4222;SDS011;2125;51.436;14.138;2022-08-06T08:40:19;2.30;;;0.90;;
4222;SDS011;2125;51.436;14.138;2022-08-06T08:42:52;2.37;;;0.90;;
4222;SDS011;2125;51.436;14.138;2022-08-06T08:45:23;1.40;;;0.77;;
4222;SDS011;2125;51.436;14.138;2022-08-06T08:47:52;1.40;;;1.07;;
4222;SDS011;2125;51.436;14.138;2022-08-06T08:50:20;1.30;;;0.70;;
4222;SDS011;2125;51.436;14.138;2022-08-06T08:52:50;2.60;;;0.90;;
4222;SDS011;2125;51.436;14.138;2022-08-06T08:55:53;1.50;;;0.70;;
4222;SDS011;2125;51.436;14.138;2022-08-06T09:01:21;1.83;;;0.80;;
4222;SDS011;2125;51.436;14.138;2022-08-06T09:03:48;1.40;;;0.80;;
4222;SDS011;2125;51.436;14.138;2022-08-06T09:06:15;3.83;;;0.87;;
4222;SDS011;2125;51.436;14.138;2022-08-06T09:08:42;1.83;;;0.90;;
4222;SDS011;2125;51.436;14.138;2022-08-06T09:11:17;1.40;;;0.70;;
4222;SDS011;2125;51.436;14.138;2022-08-06T09:13:45;1.73;;;0.70;;
4222;SDS011;2125;51.436;14.138;2022-08-06T09:16:12;0.80;;;0.60;;
4222;SDS011;2125;51.436;14.138;2022-08-06T09:21:20;3.83;;;0.70;;
4222;SDS011;2125;51.436;14.138;2022-08-06T09:23:47;1.57;;;0.70;;
4222;SDS011;2125;51.436;14.138;2022-08-06T09:26:14;3.80;;;0.67;;
4222;SDS011;2125;51.436;14.138;2022-08-06T09:28:41;2.50;;;0.70;;
4222;SDS011;2125;51.436;14.138;2022-08-06T09:31:11;9.60;;;0.70;;
4222;SDS011;2125;51.436;14.138;2022-08-06T09:33:40;1.57;;;0.60;;
4222;SDS011;2125;51.436;14.138;2022-08-06T09:36:08;0.97;;;0.60;;
4222;SDS011;2125;51.436;14.138;2022-08-06T09:38:44;1.73;;;0.73;;
4222;SDS011;2125;51.436;14.138;2022-08-06T09:41:13;1.40;;;0.70;;
4222;SDS011;2125;51.436;14.138;2022-08-06T09:43:41;4.30;;;0.80;;
4222;SDS011;2125;51.436;14.138;2022-08-06T09:46:10;1.40;;;0.70;;
4222;SDS011;2125;51.436;14.138;2022-08-06T09:48:39;1.07;;;0.70;;
4222;SDS011;2125;51.436;14.138;2022-08-06T09:51:22;0.67;;;0.60;;
4222;SDS011;2125;51.436;14.138;2022-08-06T09:53:52;2.00;;;0.70;;
4222;SDS011;2125;51.436;14.138;2022-08-06T09:56:20;2.77;;;0.73;;
4222;SDS011;2125;51.436;14.138;2022-08-06T09:58:46;1.23;;;0.67;;
4222;SDS011;2125;51.436;14.138;2022-08-06T10:01:17;1.27;;;0.67;;
4222;SDS011;2125;51.436;14.138;2022-08-06T10:03:46;2.30;;;0.60;;
4222;SDS011;2125;51.436;14.138;2022-08-06T10:06:13;1.50;;;0.80;;
4222;SDS011;2125;51.436;14.138;2022-08-06T10:08:45;0.90;;;0.70;;
4222;SDS011;2125;51.436;14.138;2022-08-06T10:11:12;0.70;;;0.70;;
4222;SDS011;2125;51.436;14.138;2022-08-06T10:13:39;0.83;;;0.57;;
4222;SDS011;2125;51.436;14.138;2022-08-06T10:16:17;0.63;;;0.50;;
4222;SDS011;2125;51.436;14.138;2022-08-06T10:18:46;0.80;;;0.50;;
4222;SDS011;2125;51.436;14.138;2022-08-06T10:21:14;2.67;;;0.60;;
4222;SDS011;2125;51.436;14.138;2022-08-06T10:23:44;2.07;;;0.63;;
4222;SDS011;2125;51.436;14.138;2022-08-06T10:26:12;1.00;;;0.60;;
4222;SDS011;2125;51.436;14.138;2022-08-06T10:28:40;1.10;;;0.60;;
4222;SDS011;2125;51.436;14.138;2022-08-06T10:31:11;1.00;;;0.60;;
4222;SDS011;2125;51.436;14.138;2022-08-06T10:33:41;5.53;;;0.77;;
4222;SDS011;2125;51.436;14.138;2022-08-06T10:36:13;1.30;;;0.87;;
4222;SDS011;2125;51.436;14.138;2022-08-06T10:38:44;1.27;;;0.57;;
4222;SDS011;2125;51.436;14.138;2022-08-06T10:41:12;0.70;;;0.53;;
4222;SDS011;2125;51.436;14.138;2022-08-06T10:43:39;1.10;;;0.70;;
4222;SDS011;2125;51.436;14.138;2022-08-06T10:46:07;0.90;;;0.70;;
4222;SDS011;2125;51.436;14.138;2022-08-06T10:48:35;0.87;;;0.60;;
4222;SDS011;2125;51.436;14.138;2022-08-06T10:51:05;0.70;;;0.60;;
4222;SDS011;2125;51.436;14.138;2022-08-06T10:53:33;2.17;;;0.60;;
4222;SDS011;2125;51.436;14.138;2022-08-06T10:56:02;0.90;;;0.60;;
4222;SDS011;2125;51.436;14.138;2022-08-06T10:58:30;7.53;;;0.60;;
4222;SDS011;2125;51.436;14.138;2022-08-06T11:00:58;0.60;;;0.57;;
4222;SDS011;2125;51.436;14.138;2022-08-06T11:03:28;0.90;;;0.60;;
4222;SDS011;2125;51.436;14.138;2022-08-06T11:06:08;1.90;;;0.73;;
4222;SDS011;2125;51.436;14.138;2022-08-06T11:08:48;1.53;;;0.60;;
4222;SDS011;2125;51.436;14.138;2022-08-06T11:11:27;0.70;;;0.50;;
4222;SDS011;2125;51.436;14.138;2022-08-06T11:14:12;0.63;;;0.57;;
4222;SDS011;2125;51.436;14.138;2022-08-06T11:16:39;1.37;;;0.60;;
4222;SDS011;2125;51.436;14.138;2022-08-06T11:19:06;0.60;;;0.50;;
4222;SDS011;2125;51.436;14.138;2022-08-06T11:21:42;0.83;;;0.60;;
4222;SDS011;2125;51.436;14.138;2022-08-06T11:24:10;0.90;;;0.50;;
4222;SDS011;2125;51.436;14.138;2022-08-06T11:26:38;1.40;;;0.73;;
4222;SDS011;2125;51.436;14.138;2022-08-06T11:29:06;1.00;;;0.60;;
4222;SDS011;2125;51.436;14.138;2022-08-06T11:31:34;0.80;;;0.63;;
4222;SDS011;2125;51.436;14.138;2022-08-06T11:34:03;1.60;;;0.63;;
4222;SDS011;2125;51.436;14.138;2022-08-06T11:36:46;1.00;;;0.70;;
4222;SDS011;2125;51.436;14.138;2022-08-06T11:39:19;1.37;;;0.60;;
4222;SDS011;2125;51.436;14.138;2022-08-06T11:41:49;1.13;;;0.70;;
4222;SDS011;2125;51.436;14.138;2022-08-06T11:44:24;0.93;;;0.70;;
4222;SDS011;2125;51.436;14.138;2022-08-06T11:47:05;1.90;;;0.70;;
4222;SDS011;2125;51.436;14.138;2022-08-06T11:49:35;1.63;;;0.80;;
4222;SDS011;2125;51.436;14.138;2022-08-06T11:52:05;1.70;;;0.73;;
4222;SDS011;2125;51.436;14.138;2022-08-06T11:54:32;0.70;;;0.70;;
4222;SDS011;2125;51.436;14.138;2022-08-06T12:02:45;1.27;;;0.80;;
4222;SDS011;2125;51.436;14.138;2022-08-06T12:08:23;0.90;;;0.60;;
4222;SDS011;2125;51.436;14.138;2022-08-06T12:13:52;0.80;;;0.60;;
4222;SDS011;2125;51.436;14.138;2022-08-06T12:16:26;1.50;;;0.63;;
4222;SDS011;2125;51.436;14.138;2022-08-06T12:18:54;1.20;;;0.70;;
4222;SDS011;2125;51.436;14.138;2022-08-06T12:21:21;1.20;;;0.70;;
4222;SDS011;2125;51.436;14.138;2022-08-06T12:23:50;1.87;;;0.70;;
4222;SDS011;2125;51.436;14.138;2022-08-06T12:26:18;1.73;;;0.70;;
4222;SDS011;2125;51.436;14.138;2022-08-06T12:28:47;0.63;;;0.63;;
4222;SDS011;2125;51.436;14.138;2022-08-06T12:31:27;1.03;;;0.90;;
4222;SDS011;2125;51.436;14.138;2022-08-06T12:33:54;1.77;;;0.80;;
4222;SDS011;2125;51.436;14.138;2022-08-06T12:36:24;2.30;;;0.70;;
4222;SDS011;2125;51.436;14.138;2022-08-06T12:38:54;2.73;;;0.63;;
4222;SDS011;2125;51.436;14.138;2022-08-06T12:41:22;0.93;;;0.73;;
4222;SDS011;2125;51.436;14.138;2022-08-06T12:43:48;1.23;;;0.80;;
4222;SDS011;2125;51.436;14.138;2022-08-06T12:46:15;1.43;;;0.90;;
4222;SDS011;2125;51.436;14.138;2022-08-06T12:48:44;1.37;;;0.70;;
4222;SDS011;2125;51.436;14.138;2022-08-06T12:51:12;0.70;;;0.70;;
4222;SDS011;2125;51.436;14.138;2022-08-06T12:53:40;0.80;;;0.70;;
4222;SDS011;2125;51.436;14.138;2022-08-06T12:56:09;0.90;;;0.70;;
4222;SDS011;2125;51.436;14.138;2022-08-06T12:58:38;2.07;;;0.70;;
4222;SDS011;2125;51.436;14.138;2022-08-06T13:01:07;1.53;;;0.73;;
4222;SDS011;2125;51.436;14.138;2022-08-06T13:03:37;1.10;;;0.80;;
4222;SDS011;2125;51.436;14.138;2022-08-06T13:06:08;1.60;;;0.80;;
4222;SDS011;2125;51.436;14.138;2022-08-06T13:08:35;0.93;;;0.83;;
4222;SDS011;2125;51.436;14.138;2022-08-06T13:11:03;1.57;;;0.80;;
4222;SDS011;2125;51.436;14.138;2022-08-06T13:13:35;0.80;;;0.50;;
4222;SDS011;2125;51.436;14.138;2022-08-06T13:16:05;0.90;;;0.70;;
4222;SDS011;2125;51.436;14.138;2022-08-06T13:18:33;2.60;;;0.80;;
4222;SDS011;2125;51.436;14.138;2022-08-06T13:21:00;2.17;;;0.80;;
4222;SDS011;2125;51.436;14.138;2022-08-06T13:23:29;1.40;;;0.80;;
4222;SDS011;2125;51.436;14.138;2022-08-06T13:25:57;1.17;;;0.83;;
4222;SDS011;2125;51.436;14.138;2022-08-06T13:28:24;1.30;;;0.80;;
4222;SDS011;2125;51.436;14.138;2022-08-06T13:30:52;0.73;;;0.73;;
4222;SDS011;2125;51.436;14.138;2022-08-06T13:33:23;1.83;;;0.70;;
4222;SDS011;2125;51.436;14.138;2022-08-06T13:35:51;1.10;;;0.70;;
4222;SDS011;2125;51.436;14.138;2022-08-06T13:38:25;0.97;;;0.80;;
4222;SDS011;2125;51.436;14.138;2022-08-06T13:40:52;1.33;;;0.77;;
4222;SDS011;2125;51.436;14.138;2022-08-06T13:43:20;1.17;;;0.70;;
4222;SDS011;2125;51.436;14.138;2022-08-06T13:45:47;0.80;;;0.73;;
4222;SDS011;2125;51.436;14.138;2022-08-06T13:48:17;0.73;;;0.63;;
4222;SDS011;2125;51.436;14.138;2022-08-06T13:50:44;0.80;;;0.70;;
4222;SDS011;2125;51.436;14.138;2022-08-06T13:53:11;1.87;;;0.77;;
4222;SDS011;2125;51.436;14.138;2022-08-06T13:55:42;0.90;;;0.60;;
4222;SDS011;2125;51.436;14.138;2022-08-06T13:58:09;0.90;;;0.80;;
4222;SDS011;2125;51.436;14.138;2022-08-06T14:00:36;1.37;;;0.70;;
4222;SDS011;2125;51.436;14.138;2022-08-06T14:03:11;0.97;;;0.80;;
4222;SDS011;2125;51.436;14.138;2022-08-06T14:05:48;1.67;;;0.87;;
4222;SDS011;2125;51.436;14.138;2022-08-06T14:08:14;2.00;;;0.70;;
4222;SDS011;2125;51.436;14.138;2022-08-06T14:10:41;1.30;;;0.70;;
4222;SDS011;2125;51.436;14.138;2022-08-06T14:13:08;1.63;;;0.80;;
4222;SDS011;2125;51.436;14.138;2022-08-06T14:15:44;3.43;;;0.80;;
4222;SDS011;2125;51.436;14.138;2022-08-06T14:18:11;2.10;;;0.80;;
4222;SDS011;2125;51.436;14.138;2022-08-06T14:20:38;1.70;;;0.80;;
4222;SDS011;2125;51.436;14.138;2022-08-06T14:23:06;1.00;;;0.80;;
4222;SDS011;2125;51.436;14.138;2022-08-06T14:25:33;2.13;;;0.80;;
4222;SDS011;2125;51.436;14.138;2022-08-06T14:28:00;1.03;;;0.83;;
4222;SDS011;2125;51.436;14.138;2022-08-06T14:30:26;1.53;;;0.70;;
4222;SDS011;2125;51.436;14.138;2022-08-06T14:32:53;0.73;;;0.70;;
4222;SDS011;2125;51.436;14.138;2022-08-06T14:35:20;0.70;;;0.67;;
4222;SDS011;2125;51.436;14.138;2022-08-06T14:37:47;1.20;;;0.70;;
4222;SDS011;2125;51.436;14.138;2022-08-06T14:40:15;1.13;;;0.60;;
4222;SDS011;2125;51.436;14.138;2022-08-06T14:43:02;1.03;;;0.70;;
4222;SDS011;2125;51.436;14.138;2022-08-06T14:45:46;2.60;;;0.70;;
4222;SDS011;2125;51.436;14.138;2022-08-06T14:48:12;2.30;;;0.63;;
4222;SDS011;2125;51.436;14.138;2022-08-06T14:50:39;0.90;;;0.70;;
4222;SDS011;2125;51.436;14.138;2022-08-06T14:53:06;1.27;;;1.10;;
4222;SDS011;2125;51.436;14.138;2022-08-06T14:55:34;4.93;;;0.70;;
4222;SDS011;2125;51.436;14.138;2022-08-06T14:58:00;2.30;;;0.80;;
4222;SDS011;2125;51.436;14.138;2022-08-06T15:00:27;1.53;;;0.97;;
4222;SDS011;2125;51.436;14.138;2022-08-06T15:02:53;3.33;;;0.90;;
4222;SDS011;2125;51.436;14.138;2022-08-06T15:05:20;1.27;;;0.70;;
4222;SDS011;2125;51.436;14.138;2022-08-06T15:07:47;1.93;;;1.07;;
4222;SDS011;2125;51.436;14.138;2022-08-06T15:10:13;2.50;;;0.80;;
4222;SDS011;2125;51.436;14.138;2022-08-06T15:12:41;1.03;;;0.70;;
4222;SDS011;2125;51.436;14.138;2022-08-06T15:15:08;1.50;;;0.73;;
4222;SDS011;2125;51.436;14.138;2022-08-06T15:17:35;1.10;;;0.70;;
4222;SDS011;2125;51.436;14.138;2022-08-06T15:20:02;4.57;;;0.80;;
4222;SDS011;2125;51.436;14.138;2022-08-06T15:22:30;0.93;;;0.70;;
4222;SDS011;2125;51.436;14.138;2022-08-06T15:24:56;1.17;;;0.80;;
4222;SDS011;2125;51.436;14.138;2022-08-06T15:27:23;1.67;;;0.70;;
4222;SDS011;2125;51.436;14.138;2022-08-06T15:29:51;2.13;;;0.67;;
4222;SDS011;2125;51.436;14.138;2022-08-06T15:32:18;2.80;;;0.80;;